Aviation Digital Data Service (ADDS)

Output produced by METARs form (0428 UTC 26 May 2018)
found at http://www.aviationweather.gov/adds/metars/
 
GGOV 260100Z 29008KT CAVOK 23/20 Q1011 NOSIG
TAF GGOV 252300Z 2600/2624 24010KT CAVOK